createdAt,value
2023-05-23T00:00:58.596Z,85.50
2023-05-23T00:01:58.289Z,85.70
2023-05-23T00:02:58.563Z,85.80
2023-05-23T00:03:58.517Z,86.30
2023-05-23T00:04:58.433Z,86.61
2023-05-23T00:05:58.356Z,87.05
2023-05-23T00:06:58.599Z,87.36
2023-05-23T00:07:58.503Z,86.65
2023-05-23T00:08:58.514Z,86.55
2023-05-23T00:09:58.360Z,86.45
2023-05-23T00:10:58.433Z,86.65
2023-05-23T00:11:58.395Z,86.75
2023-05-23T00:12:58.005Z,86.95
2023-05-23T00:13:58.342Z,87.46
2023-05-23T00:14:58.283Z,88.06
2023-05-23T00:15:58.224Z,87.56
2023-05-23T00:16:58.200Z,87.05
2023-05-23T00:17:58.299Z,86.95
2023-05-23T00:18:58.156Z,87.01
2023-05-23T00:19:58.233Z,87.32
2023-05-23T00:20:58.235Z,86.51
2023-05-23T00:21:58.584Z,86.61
2023-05-23T00:22:58.435Z,86.51
2023-05-23T00:23:58.361Z,86.81
2023-05-23T00:24:58.234Z,86.30
2023-05-23T00:25:58.106Z,86.15
2023-05-23T00:26:58.023Z,85.94
2023-05-23T00:27:58.185Z,85.94
2023-05-23T00:28:58.315Z,85.58
2023-05-23T00:29:58.065Z,85.78
2023-05-23T00:30:58.220Z,86.29
2023-05-23T00:31:58.035Z,86.08
2023-05-23T00:32:57.901Z,86.39
2023-05-23T00:33:57.897Z,86.79
2023-05-23T00:34:58.385Z,86.93
2023-05-23T00:35:57.950Z,86.73
2023-05-23T00:36:58.120Z,86.93
2023-05-23T00:37:58.035Z,86.93
2023-05-23T00:38:57.953Z,87.54
2023-05-23T00:39:58.158Z,87.54
2023-05-23T00:40:58.156Z,86.63
2023-05-23T00:41:57.986Z,86.77
2023-05-23T00:42:57.768Z,87.48
2023-05-23T00:43:58.034Z,87.08
2023-05-23T00:44:57.707Z,87.22
2023-05-23T00:45:57.991Z,87.12
2023-05-23T00:46:57.950Z,87.12
2023-05-23T00:47:57.917Z,87.02
2023-05-23T00:48:57.711Z,86.71
2023-05-23T00:49:57.884Z,86.71
2023-05-23T00:50:57.838Z,86.61
2023-05-23T00:51:58.005Z,86.71
2023-05-23T00:52:57.963Z,87.62
2023-05-23T00:53:57.987Z,88.02
2023-05-23T00:54:57.875Z,88.02
2023-05-23T00:55:57.792Z,88.02
2023-05-23T00:56:57.866Z,87.93
2023-05-23T00:57:58.092Z,88.23
2023-05-23T00:58:57.892Z,88.13
2023-05-23T00:59:57.722Z,88.33
2023-05-23T01:00:57.869Z,88.64
2023-05-23T01:01:57.731Z,88.84
2023-05-23T01:02:57.960Z,88.84
2023-05-23T01:03:57.837Z,88.94
2023-05-23T01:04:57.829Z,90.16
2023-05-23T01:05:57.607Z,90.05
2023-05-23T01:06:57.975Z,89.14
2023-05-23T01:07:57.753Z,88.53
2023-05-23T01:08:57.863Z,88.23
2023-05-23T01:09:57.660Z,88.13
2023-05-23T01:10:57.873Z,88.53
2023-05-23T01:11:57.713Z,87.52
2023-05-23T01:12:57.794Z,87.73
2023-05-23T01:13:57.741Z,87.93
2023-05-23T01:14:57.512Z,88.94
2023-05-23T01:15:59.826Z,88.94
2023-05-23T01:16:57.417Z,89.14
2023-05-23T01:17:57.579Z,88.43
2023-05-23T01:18:57.600Z,88.13
2023-05-23T01:19:57.707Z,89.45
2023-05-23T01:20:57.585Z,89.14
2023-05-23T01:21:57.643Z,89.24
2023-05-23T01:22:57.547Z,89.14
2023-05-23T01:23:57.559Z,88.84
2023-05-23T01:24:57.514Z,89.95
2023-05-23T01:25:57.861Z,90.36
2023-05-23T01:26:57.621Z,89.54
2023-05-23T01:27:57.749Z,89.04
2023-05-23T01:28:57.565Z,89.28
2023-05-23T01:29:57.252Z,89.99
2023-05-23T01:30:57.541Z,89.99
2023-05-23T01:31:57.442Z,89.79
2023-05-23T01:32:57.649Z,89.69
2023-05-23T01:33:57.472Z,89.69
2023-05-23T01:34:57.441Z,89.69
2023-05-23T01:35:57.393Z,89.69
2023-05-23T01:36:57.558Z,89.69
2023-05-23T01:37:57.352Z,89.48
2023-05-23T01:38:57.513Z,89.89
2023-05-23T01:39:56.512Z,90.40
2023-05-23T01:40:57.435Z,90.60
2023-05-23T01:41:57.353Z,89.39
2023-05-23T01:42:57.445Z,89.28
2023-05-23T01:43:57.378Z,89.08
2023-05-23T01:44:57.184Z,88.78
2023-05-23T01:45:57.608Z,88.57
2023-05-23T01:46:57.094Z,88.27
2023-05-23T01:47:57.393Z,88.68
2023-05-23T01:48:57.305Z,88.27
2023-05-23T01:49:57.441Z,88.37
2023-05-23T01:50:57.065Z,88.31
2023-05-23T01:51:57.321Z,88.82
2023-05-23T01:52:57.263Z,88.51
2023-05-23T01:53:57.249Z,88.42
2023-05-23T01:54:57.275Z,88.62
2023-05-23T01:55:57.329Z,89.32
2023-05-23T01:56:57.266Z,89.43
2023-05-23T01:57:57.234Z,88.72
2023-05-23T01:58:57.167Z,88.62
2023-05-23T01:59:57.345Z,89.43
2023-05-23T02:00:57.238Z,89.43
2023-05-23T02:01:56.975Z,88.92
2023-05-23T02:02:57.262Z,88.82
2023-05-23T02:03:57.016Z,88.21
2023-05-23T02:04:57.291Z,87.60
2023-05-23T02:05:57.151Z,87.10
2023-05-23T02:06:57.133Z,87.40
2023-05-23T02:07:57.115Z,88.11
2023-05-23T02:08:57.064Z,87.10
2023-05-23T02:09:57.076Z,87.60
2023-05-23T02:10:57.120Z,87.40
2023-05-23T02:11:56.889Z,87.30
2023-05-23T02:12:57.095Z,87.00
2023-05-23T02:13:56.951Z,87.95
2023-05-23T02:14:57.193Z,87.54
2023-05-23T02:15:57.076Z,87.14
2023-05-23T02:16:57.079Z,87.74
2023-05-23T02:17:56.905Z,88.15
2023-05-23T02:18:56.923Z,88.15
2023-05-23T02:19:56.927Z,89.37
2023-05-23T02:20:56.998Z,87.95
2023-05-23T02:21:57.076Z,88.15
2023-05-23T02:22:56.991Z,88.35
2023-05-23T02:23:56.996Z,88.15
2023-05-23T02:24:56.812Z,88.15
2023-05-23T02:25:57.057Z,87.85
2023-05-23T02:26:57.005Z,87.65
2023-05-23T02:27:56.858Z,87.34
2023-05-23T02:28:57.067Z,87.28
2023-05-23T02:29:56.847Z,87.69
2023-05-23T02:30:57.070Z,88.40
2023-05-23T02:31:56.725Z,88.70
2023-05-23T02:32:57.134Z,88.90
2023-05-23T02:33:56.646Z,88.90
2023-05-23T02:34:57.427Z,88.80
2023-05-23T02:35:56.631Z,88.60
2023-05-23T02:36:56.956Z,89.11
2023-05-23T02:37:56.814Z,89.01
2023-05-23T02:38:56.795Z,88.09
2023-05-23T02:39:56.599Z,88.03
2023-05-23T02:40:56.876Z,88.13
2023-05-23T02:41:56.797Z,89.09
2023-05-23T02:42:56.797Z,90.11
2023-05-23T02:43:56.664Z,90.92
2023-05-23T02:44:56.834Z,91.22
2023-05-23T02:45:56.753Z,91.06
2023-05-23T02:46:56.445Z,90.86
2023-05-23T02:47:56.766Z,90.20
2023-05-23T02:48:56.671Z,89.90
2023-05-23T02:49:56.647Z,90.20
2023-05-23T02:50:56.596Z,90.00
2023-05-23T02:51:56.676Z,90.61
2023-05-23T02:52:56.479Z,90.71
2023-05-23T02:53:56.717Z,90.92
2023-05-23T02:54:56.423Z,91.83
2023-05-23T02:55:56.569Z,90.71
2023-05-23T02:56:56.755Z,89.80
2023-05-23T02:57:56.678Z,89.50
2023-05-23T02:58:56.637Z,89.80
2023-05-23T02:59:56.637Z,90.11
2023-05-23T03:00:56.586Z,89.80
2023-05-23T03:01:56.684Z,89.70
2023-05-23T03:02:56.746Z,90.00
2023-05-23T03:03:56.557Z,90.41
2023-05-23T03:04:56.635Z,91.22
2023-05-23T03:05:56.416Z,91.12
2023-05-23T03:06:56.499Z,91.02
2023-05-23T03:07:56.385Z,90.88
2023-05-23T03:08:56.628Z,91.08
2023-05-23T03:09:56.453Z,90.36
2023-05-23T03:10:56.558Z,89.76
2023-05-23T03:11:56.428Z,88.95
2023-05-23T03:12:56.398Z,88.64
2023-05-23T03:13:56.413Z,88.75
2023-05-23T03:14:56.553Z,88.34
2023-05-23T03:15:56.352Z,88.23
2023-05-23T03:16:56.513Z,88.75
2023-05-23T03:17:56.585Z,88.44
2023-05-23T03:18:56.417Z,88.28
2023-05-23T03:19:56.478Z,88.28
2023-05-23T03:20:56.393Z,88.58
2023-05-23T03:21:56.435Z,88.99
2023-05-23T03:22:56.111Z,89.09
2023-05-23T03:23:56.434Z,89.39
2023-05-23T03:24:56.357Z,90.00
2023-05-23T03:25:56.583Z,90.11
2023-05-23T03:26:56.297Z,90.14
2023-05-23T03:27:56.343Z,90.25
2023-05-23T03:28:56.286Z,90.51
2023-05-23T03:29:56.281Z,90.31
2023-05-23T03:30:56.155Z,90.11
2023-05-23T03:31:56.124Z,90.00
2023-05-23T03:32:56.201Z,89.54
2023-05-23T03:33:55.945Z,88.93
2023-05-23T03:34:56.072Z,89.23
2023-05-23T03:35:55.973Z,89.64
2023-05-23T03:36:56.134Z,89.33
2023-05-23T03:37:55.969Z,88.93
2023-05-23T03:38:56.186Z,88.93
2023-05-23T03:39:55.983Z,88.73
2023-05-23T03:40:56.190Z,88.32
2023-05-23T03:41:56.004Z,88.52
2023-05-23T03:42:56.092Z,88.52
2023-05-23T03:43:56.157Z,88.01
2023-05-23T03:44:56.034Z,88.21
2023-05-23T03:45:56.026Z,88.73
2023-05-23T03:46:56.062Z,89.03
2023-05-23T03:47:55.975Z,88.28
2023-05-23T03:48:55.785Z,88.07
2023-05-23T03:49:56.016Z,88.18
2023-05-23T03:50:55.765Z,87.57
2023-05-23T03:51:55.958Z,88.28
2023-05-23T03:52:55.783Z,88.18
2023-05-23T03:53:55.978Z,87.77
2023-05-23T03:54:55.835Z,87.97
2023-05-23T03:55:56.070Z,87.57
2023-05-23T03:56:55.702Z,87.46
2023-05-23T03:57:55.912Z,87.67
2023-05-23T03:58:55.941Z,87.87
2023-05-23T03:59:55.874Z,88.32
2023-05-23T04:00:55.831Z,88.38
2023-05-23T04:01:55.998Z,88.12
2023-05-23T04:02:55.863Z,88.01
2023-05-23T04:03:55.697Z,87.87
2023-05-23T04:04:55.782Z,87.77
2023-05-23T04:05:55.727Z,87.67
2023-05-23T04:06:55.814Z,87.26
2023-05-23T04:07:55.711Z,87.06
2023-05-23T04:08:55.789Z,86.76
2023-05-23T04:09:55.677Z,86.61
2023-05-23T04:10:55.731Z,86.41
2023-05-23T04:11:55.595Z,86.31
2023-05-23T04:12:55.697Z,86.41
2023-05-23T04:13:55.601Z,85.90
2023-05-23T04:14:55.778Z,86.10
2023-05-23T04:15:55.905Z,86.31
2023-05-23T04:16:55.622Z,86.31
2023-05-23T04:17:55.667Z,86.21
2023-05-23T04:18:55.685Z,86.71
2023-05-23T04:19:55.581Z,86.51
2023-05-23T04:20:55.501Z,87.79
2023-05-23T04:21:55.915Z,86.37
2023-05-23T04:22:55.492Z,85.56
2023-05-23T04:23:55.572Z,86.16
2023-05-23T04:24:55.473Z,86.37
2023-05-23T04:25:55.661Z,86.98
2023-05-23T04:26:55.509Z,87.38
2023-05-23T04:27:55.866Z,86.98
2023-05-23T04:28:55.663Z,87.18
2023-05-23T04:29:55.634Z,86.77
2023-05-23T04:30:55.675Z,87.08
2023-05-23T04:31:55.556Z,87.28
2023-05-23T04:32:55.486Z,87.48
2023-05-23T04:33:55.597Z,87.99
2023-05-23T04:34:55.498Z,88.49
2023-05-23T04:35:55.345Z,88.40
2023-05-23T04:36:55.725Z,88.49
2023-05-23T04:37:55.584Z,88.60
2023-05-23T04:38:55.485Z,89.01
2023-05-23T04:39:56.326Z,88.40
2023-05-23T04:40:55.427Z,88.25
2023-05-23T04:41:55.245Z,88.05
2023-05-23T04:42:55.494Z,87.95
2023-05-23T04:43:55.395Z,88.01
2023-05-23T04:44:55.388Z,87.81
2023-05-23T04:45:56.333Z,88.21
2023-05-23T04:46:55.422Z,87.46
2023-05-23T04:47:56.121Z,87.46
2023-05-23T04:48:55.472Z,87.36
2023-05-23T04:49:55.362Z,87.32
2023-05-23T04:50:55.294Z,86.71
2023-05-23T04:51:55.961Z,86.91
2023-05-23T04:52:55.255Z,87.38
2023-05-23T04:53:55.375Z,86.73
2023-05-23T04:54:55.407Z,85.66
2023-05-23T04:55:55.436Z,85.93
2023-05-23T04:56:55.435Z,85.52
2023-05-23T04:57:55.945Z,85.62
2023-05-23T04:58:54.415Z,84.61
2023-05-23T04:59:55.766Z,84.57
2023-05-23T05:00:56.046Z,83.96
2023-05-23T05:01:56.057Z,82.78
2023-05-23T05:02:54.424Z,80.88
2023-05-23T05:03:55.472Z,77.84
2023-05-23T05:04:54.359Z,75.09
2023-05-23T05:05:55.793Z,72.17
2023-05-23T05:06:54.353Z,69.19
2023-05-23T05:07:55.395Z,67.82
2023-05-23T05:08:54.322Z,65.69
2023-05-23T05:09:57.220Z,65.33
2023-05-23T05:10:55.490Z,63.49
2023-05-23T05:11:56.201Z,62.89
2023-05-23T05:12:54.303Z,62.56
2023-05-23T05:13:55.964Z,61.87
2023-05-23T05:14:55.265Z,60.74
2023-05-23T05:15:55.852Z,61.16
2023-05-23T05:16:55.151Z,60.74
2023-05-23T05:17:54.289Z,59.74
2023-05-23T05:18:55.848Z,60.06
2023-05-23T05:19:55.403Z,60.00
2023-05-23T05:20:55.082Z,59.05
2023-05-23T05:21:54.187Z,57.57
2023-05-23T05:22:55.865Z,56.40
2023-05-23T05:23:55.693Z,57.20
2023-05-23T05:24:54.801Z,56.98
2023-05-23T05:25:54.961Z,54.93
2023-05-23T05:26:54.874Z,53.06
2023-05-23T05:27:55.141Z,52.22
2023-05-23T05:28:54.892Z,50.40
2023-05-23T05:29:54.111Z,49.69
2023-05-23T05:30:54.235Z,49.86
2023-05-23T05:31:55.693Z,48.75
2023-05-23T05:32:54.258Z,49.24
2023-05-23T05:33:55.550Z,49.21
2023-05-23T05:34:55.847Z,50.11
2023-05-23T05:35:55.031Z,50.56
2023-05-23T05:36:54.774Z,48.08
2023-05-23T05:37:54.033Z,47.68
2023-05-23T05:38:54.008Z,48.32
2023-05-23T05:39:55.832Z,49.96
2023-05-23T05:40:53.995Z,52.27
2023-05-23T05:41:56.047Z,53.27
2023-05-23T05:42:55.430Z,54.24
2023-05-23T05:43:54.713Z,53.09
2023-05-23T05:44:54.825Z,51.17
2023-05-23T05:45:54.018Z,52.24
2023-05-23T05:46:55.605Z,49.71
2023-05-23T05:47:54.794Z,49.88
2023-05-23T05:48:53.925Z,49.39
2023-05-23T05:49:54.687Z,49.19
2023-05-23T05:50:53.937Z,49.29
2023-05-23T05:51:55.226Z,49.19
2023-05-23T05:52:55.506Z,50.01
2023-05-23T05:53:53.854Z,50.70
2023-05-23T05:54:55.168Z,50.43
2023-05-23T05:55:54.813Z,49.02
2023-05-23T05:56:53.815Z,50.40
2023-05-23T05:57:55.547Z,49.41
2023-05-23T05:58:54.941Z,48.30
2023-05-23T05:59:53.805Z,48.27
2023-05-23T06:00:54.496Z,47.98
2023-05-23T06:01:53.855Z,49.17
2023-05-23T06:02:54.616Z,46.55
2023-05-23T06:03:54.025Z,46.15
2023-05-23T06:04:55.269Z,47.24
2023-05-23T06:05:54.599Z,47.44
2023-05-23T06:06:53.781Z,47.69
2023-05-23T06:07:54.559Z,46.84
2023-05-23T06:08:54.473Z,46.72
2023-05-23T06:09:53.706Z,46.74
2023-05-23T06:10:54.527Z,46.15
2023-05-23T06:11:54.516Z,45.43
2023-05-23T06:12:53.731Z,46.80
2023-05-23T06:13:55.507Z,45.34
2023-05-23T06:14:54.506Z,45.29
2023-05-23T06:15:54.488Z,45.93
2023-05-23T06:16:54.439Z,46.64
2023-05-23T06:17:54.319Z,47.46
2023-05-23T06:18:53.663Z,48.35
2023-05-23T06:19:55.295Z,47.78
2023-05-23T06:20:54.389Z,48.03
2023-05-23T06:21:54.363Z,47.81
2023-05-23T06:22:55.067Z,47.24
2023-05-23T06:23:54.410Z,47.83
2023-05-23T06:24:53.608Z,47.31
2023-05-23T06:25:54.312Z,45.21
2023-05-23T06:26:54.180Z,45.93
2023-05-23T06:27:54.305Z,47.24
2023-05-23T06:28:54.157Z,47.63
2023-05-23T06:29:54.495Z,45.31
2023-05-23T06:30:54.229Z,46.11
2023-05-23T06:31:54.287Z,45.73
2023-05-23T06:32:53.537Z,47.69
2023-05-23T06:33:55.326Z,46.55
2023-05-23T06:34:54.206Z,45.57
2023-05-23T06:35:55.356Z,46.62
2023-05-23T06:36:54.226Z,47.66
2023-05-23T06:37:53.635Z,48.75
2023-05-23T06:38:53.415Z,47.91
2023-05-23T06:39:54.009Z,46.38
2023-05-23T06:40:53.471Z,45.96
2023-05-23T06:41:54.995Z,44.65
2023-05-23T06:42:54.186Z,46.33
2023-05-23T06:43:54.121Z,47.04
2023-05-23T06:44:54.196Z,47.63
2023-05-23T06:45:53.397Z,47.47
2023-05-23T06:46:54.404Z,44.12
2023-05-23T06:47:54.231Z,43.90
2023-05-23T06:49:06.502Z,43.59
2023-05-23T06:49:54.213Z,44.03
2023-05-23T06:50:54.198Z,42.36
2023-05-23T06:51:54.371Z,43.29
2023-05-23T06:52:53.282Z,42.95
2023-05-23T06:53:53.954Z,42.89
2023-05-23T06:54:53.262Z,40.41
2023-05-23T06:55:54.079Z,40.78
2023-05-23T06:56:54.054Z,41.86
2023-05-23T06:57:54.008Z,41.59
2023-05-23T06:58:53.850Z,40.72
2023-05-23T06:59:54.133Z,41.96
2023-05-23T07:00:53.995Z,43.59
2023-05-23T07:01:54.025Z,44.42
2023-05-23T07:02:53.317Z,45.82
2023-05-23T07:03:53.949Z,46.41
2023-05-23T07:04:53.867Z,44.20
2023-05-23T07:05:53.991Z,42.46
2023-05-23T07:06:53.133Z,42.14
2023-05-23T07:07:53.929Z,43.06
2023-05-23T07:08:54.977Z,43.24
2023-05-23T07:09:53.683Z,44.49
2023-05-23T07:10:53.887Z,46.16
2023-05-23T07:11:53.686Z,47.86
2023-05-23T07:12:53.953Z,44.93
2023-05-23T07:13:53.884Z,44.37
2023-05-23T07:14:53.833Z,43.96
2023-05-23T07:15:53.022Z,43.86
2023-05-23T07:16:54.662Z,43.44
2023-05-23T07:17:53.996Z,43.68
2023-05-23T07:18:53.072Z,44.87
2023-05-23T07:19:54.515Z,44.71
2023-05-23T07:20:53.907Z,46.48
2023-05-23T07:21:52.952Z,45.01
2023-05-23T07:22:54.689Z,44.89
2023-05-23T07:23:53.756Z,45.92
2023-05-23T07:24:52.942Z,46.31
2023-05-23T07:26:54.174Z,46.11
2023-05-23T07:27:53.733Z,46.63
2023-05-23T07:28:54.675Z,46.14
2023-05-23T07:29:52.925Z,46.23
2023-05-23T07:30:54.662Z,46.23
2023-05-23T07:31:54.148Z,45.42
2023-05-23T07:32:52.874Z,45.78
2023-05-23T07:33:56.462Z,41.94
2023-05-23T07:34:53.584Z,42.08
2023-05-23T07:35:53.784Z,41.37
2023-05-23T07:36:53.689Z,40.84
2023-05-23T07:37:53.571Z,41.19
2023-05-23T07:38:52.800Z,42.24
2023-05-23T07:39:55.163Z,39.64
2023-05-23T07:41:06.680Z,38.84
2023-05-23T07:41:53.426Z,38.72
2023-05-23T07:42:52.747Z,38.33
2023-05-23T07:43:53.406Z,40.16
2023-05-23T07:44:52.693Z,41.24
2023-05-23T07:45:54.601Z,41.02
2023-05-23T07:46:54.199Z,40.78
2023-05-23T07:47:53.492Z,38.20
2023-05-23T07:48:52.654Z,38.49
2023-05-23T07:49:53.359Z,39.92
2023-05-23T07:50:52.631Z,36.38
2023-05-23T07:51:54.521Z,37.95
2023-05-23T07:52:53.885Z,36.24
2023-05-23T07:53:52.642Z,36.05
2023-05-23T07:54:54.963Z,37.45
2023-05-23T07:55:53.457Z,37.06
2023-05-23T07:56:53.277Z,37.45
2023-05-23T07:57:53.414Z,37.35
2023-05-23T07:58:53.271Z,39.06
2023-05-23T07:59:53.364Z,37.18
2023-05-23T08:00:53.143Z,39.22
2023-05-23T08:01:54.137Z,38.08
2023-05-23T08:02:53.715Z,38.88
2023-05-23T08:03:53.500Z,38.04
2023-05-23T08:04:53.229Z,36.94
2023-05-23T08:05:52.532Z,38.57
2023-05-23T08:07:05.020Z,38.43
2023-05-23T08:07:53.905Z,37.54
2023-05-23T08:08:52.530Z,38.48
2023-05-23T08:09:54.090Z,37.46
2023-05-23T08:10:53.533Z,36.76
2023-05-23T08:11:53.322Z,36.80
2023-05-23T08:12:53.204Z,37.50
2023-05-23T08:13:52.483Z,37.60
2023-05-23T08:14:53.232Z,37.04
2023-05-23T08:15:53.014Z,37.01
2023-05-23T08:16:53.432Z,37.29
2023-05-23T08:17:53.104Z,36.25
2023-05-23T08:18:53.434Z,35.57
2023-05-23T08:19:52.416Z,36.53
2023-05-23T08:20:53.345Z,35.73
2023-05-23T08:21:53.018Z,36.25
2023-05-23T08:22:53.379Z,36.18
2023-05-23T08:23:53.024Z,36.04
2023-05-23T08:24:53.161Z,39.12
2023-05-23T08:25:52.376Z,37.95
2023-05-23T08:26:53.086Z,38.02
2023-05-23T08:27:53.024Z,37.62
2023-05-23T08:28:52.255Z,38.12
2023-05-23T08:29:53.056Z,38.94
2023-05-23T08:30:52.950Z,38.96
2023-05-23T08:31:53.196Z,39.72
2023-05-23T08:32:52.339Z,39.80
2023-05-23T08:33:53.037Z,38.49
2023-05-23T08:34:52.924Z,37.48
2023-05-23T08:35:53.136Z,37.37
2023-05-23T08:36:52.208Z,38.04
2023-05-23T08:37:53.266Z,36.94
2023-05-23T08:38:53.023Z,37.23
2023-05-23T08:39:53.004Z,36.10
2023-05-23T08:40:52.176Z,35.16
2023-05-23T08:41:53.877Z,35.75
2023-05-23T08:42:52.916Z,35.94
2023-05-23T08:43:52.198Z,37.05
2023-05-23T08:44:52.963Z,37.13
2023-05-23T08:45:52.785Z,38.79
2023-05-23T08:46:52.936Z,39.78
2023-05-23T08:47:52.866Z,38.73
2023-05-23T08:48:52.969Z,37.62
2023-05-23T08:49:52.736Z,36.43
2023-05-23T08:50:52.937Z,36.79
2023-05-23T08:51:52.819Z,35.44
2023-05-23T08:52:52.855Z,36.53
2023-05-23T08:53:53.484Z,36.61
2023-05-23T08:54:52.003Z,36.20
2023-05-23T08:55:52.766Z,35.19
2023-05-23T08:56:51.975Z,35.50
2023-05-23T08:57:52.773Z,35.29
2023-05-23T08:58:52.014Z,34.80
2023-05-23T08:59:53.520Z,34.14
2023-05-23T09:00:52.576Z,35.61
2023-05-23T09:01:52.855Z,35.23
2023-05-23T09:02:52.742Z,35.26
2023-05-23T09:03:52.734Z,37.13
2023-05-23T09:04:52.662Z,35.83
2023-05-23T09:05:52.830Z,36.28
2023-05-23T09:06:51.883Z,35.19
2023-05-23T09:07:52.692Z,35.53
2023-05-23T09:08:51.852Z,36.32
2023-05-23T09:09:53.245Z,36.28
2023-05-23T09:10:52.921Z,34.42
2023-05-23T09:11:52.691Z,35.29
2023-05-23T09:12:52.637Z,35.21
2023-05-23T09:13:52.725Z,35.63
2023-05-23T09:14:52.636Z,37.04
2023-05-23T09:15:52.362Z,37.19
2023-05-23T09:16:52.794Z,37.29
2023-05-23T09:17:52.434Z,36.90
2023-05-23T09:18:52.661Z,37.19
2023-05-23T09:19:52.413Z,37.58
2023-05-23T09:20:51.766Z,36.18
2023-05-23T09:21:53.579Z,36.96
2023-05-23T09:22:52.605Z,36.38
2023-05-23T09:23:52.436Z,35.66
2023-05-23T09:24:52.555Z,34.97
2023-05-23T09:25:52.476Z,34.46
2023-05-23T09:26:52.565Z,34.46
2023-05-23T09:27:52.415Z,35.78
2023-05-23T09:28:52.656Z,36.22
2023-05-23T09:29:51.656Z,35.80
2023-05-23T09:30:53.228Z,34.36
2023-05-23T09:31:52.447Z,35.64
2023-05-23T09:32:52.275Z,34.66
2023-05-23T09:33:52.558Z,35.33
2023-05-23T09:34:52.312Z,34.69
2023-05-23T09:35:52.498Z,35.64
2023-05-23T09:36:52.225Z,34.56
2023-05-23T09:37:52.408Z,34.33
2023-05-23T09:38:52.241Z,33.60
2023-05-23T09:39:52.686Z,32.92
2023-05-23T09:40:52.268Z,32.34
2023-05-23T09:41:52.388Z,33.52
2023-05-23T09:42:52.258Z,33.22
2023-05-23T09:43:52.462Z,33.41
2023-05-23T09:44:51.537Z,33.69
2023-05-23T09:45:52.427Z,32.91
2023-05-23T09:46:52.277Z,33.62
2023-05-23T09:47:52.456Z,34.59
2023-05-23T09:48:51.525Z,34.30
2023-05-23T09:49:53.098Z,34.59
2023-05-23T09:50:52.242Z,34.23
2023-05-23T09:51:52.280Z,35.03
2023-05-23T09:52:52.447Z,34.41
2023-05-23T09:53:52.217Z,34.75
2023-05-23T09:54:51.507Z,35.35
2023-05-23T09:55:52.059Z,35.06
2023-05-23T09:56:52.386Z,36.61
2023-05-23T09:57:52.279Z,35.32
2023-05-23T09:58:52.213Z,36.40
2023-05-23T09:59:52.225Z,36.24
2023-05-23T10:00:52.127Z,36.30
2023-05-23T10:01:52.112Z,36.63
2023-05-23T10:02:52.352Z,36.52
2023-05-23T10:03:52.237Z,36.05
2023-05-23T10:04:52.053Z,36.87
2023-05-23T10:05:52.187Z,37.95
2023-05-23T10:06:51.976Z,38.77
2023-05-23T10:07:51.327Z,37.45
2023-05-23T10:08:51.285Z,38.89
2023-05-23T10:09:52.047Z,36.79
2023-05-23T10:10:52.005Z,35.21
2023-05-23T10:11:52.193Z,35.53
2023-05-23T10:12:51.975Z,35.86
2023-05-23T10:13:52.102Z,37.43
2023-05-23T10:14:52.068Z,37.14
2023-05-23T10:15:52.005Z,36.79
2023-05-23T10:16:51.964Z,38.30
2023-05-23T10:17:51.975Z,40.11
2023-05-23T10:18:52.086Z,41.17
2023-05-23T10:19:51.837Z,42.66
2023-05-23T10:20:51.994Z,41.93
2023-05-23T10:21:51.802Z,42.01
2023-05-23T10:22:52.107Z,41.80
2023-05-23T10:23:51.871Z,40.23
2023-05-23T10:24:52.144Z,42.50
2023-05-23T10:25:51.095Z,42.38
2023-05-23T10:26:51.986Z,41.70
2023-05-23T10:27:54.079Z,41.89
2023-05-23T10:28:51.077Z,41.60
2023-05-23T10:29:51.785Z,41.80
2023-05-23T10:30:51.920Z,42.38
2023-05-23T10:31:51.775Z,41.54
2023-05-23T10:32:51.938Z,43.88
2023-05-23T10:33:51.813Z,45.49
2023-05-23T10:34:51.738Z,46.51
2023-05-23T10:35:51.844Z,47.89
2023-05-23T10:36:51.676Z,47.74
2023-05-23T10:37:51.890Z,48.08
2023-05-23T10:38:51.876Z,48.15
2023-05-23T10:39:50.940Z,49.50
2023-05-23T10:40:51.703Z,50.46
2023-05-23T10:41:51.820Z,51.47
2023-05-23T10:42:50.933Z,51.79
2023-05-23T10:43:51.736Z,51.72
2023-05-23T10:44:51.767Z,53.05
2023-05-23T10:45:51.682Z,54.96
2023-05-23T10:46:51.647Z,55.08
2023-05-23T10:47:51.724Z,55.41
2023-05-23T10:48:51.641Z,55.33
2023-05-23T10:49:50.831Z,56.15
2023-05-23T10:50:52.241Z,55.98
2023-05-23T10:51:51.509Z,54.69
2023-05-23T10:52:52.181Z,55.51
2023-05-23T10:53:51.468Z,55.81
2023-05-23T10:54:52.123Z,55.02
2023-05-23T10:55:51.471Z,55.71
2023-05-23T10:56:50.805Z,56.53
2023-05-23T10:57:51.420Z,55.34
2023-05-23T10:58:50.778Z,55.64
2023-05-23T10:59:50.828Z,55.41
2023-05-23T11:00:51.695Z,56.48
2023-05-23T11:01:50.798Z,55.83
2023-05-23T11:02:50.799Z,55.63
2023-05-23T11:03:54.021Z,55.21
2023-05-23T11:04:50.765Z,54.71
2023-05-23T11:05:51.521Z,54.71
2023-05-23T11:06:50.741Z,56.40
2023-05-23T11:07:51.601Z,54.59
2023-05-23T11:08:50.840Z,53.13
2023-05-23T11:09:51.450Z,54.12
2023-05-23T11:10:50.671Z,55.18
2023-05-23T11:11:51.442Z,53.11
2023-05-23T11:12:50.681Z,54.49
2023-05-23T11:13:51.431Z,54.86
2023-05-23T11:14:52.428Z,54.29
2023-05-23T11:15:51.462Z,54.29
2023-05-23T11:16:51.380Z,54.14
2023-05-23T11:17:51.489Z,53.72
2023-05-23T11:18:51.527Z,53.53
2023-05-23T11:19:51.440Z,53.63
2023-05-23T11:20:53.045Z,53.92
2023-05-23T11:21:51.318Z,52.64
2023-05-23T11:22:51.321Z,53.82
2023-05-23T11:23:51.143Z,53.11
2023-05-23T11:24:51.327Z,52.78
2023-05-23T11:25:51.120Z,52.76
2023-05-23T11:26:52.886Z,51.97
2023-05-23T11:27:51.146Z,51.77
2023-05-23T11:28:51.402Z,51.79
2023-05-23T11:29:50.460Z,53.20
2023-05-23T11:30:51.309Z,52.86
2023-05-23T11:31:51.267Z,51.57
2023-05-23T11:32:50.478Z,52.98
2023-05-23T11:33:51.252Z,53.97
2023-05-23T11:34:51.280Z,52.86
2023-05-23T11:35:50.371Z,53.55
2023-05-23T11:36:52.410Z,53.12
2023-05-23T11:37:51.824Z,54.28
2023-05-23T11:38:50.358Z,52.11
2023-05-23T11:39:51.146Z,51.87
2023-05-23T11:40:51.125Z,52.58
2023-05-23T11:41:50.343Z,53.87
2023-05-23T11:42:54.130Z,52.86
2023-05-23T11:43:51.092Z,52.06
2023-05-23T11:44:51.015Z,52.09
2023-05-23T11:45:50.298Z,52.17
2023-05-23T11:46:51.077Z,51.59
2023-05-23T11:47:50.276Z,52.83
2023-05-23T11:48:52.795Z,54.52
2023-05-23T11:49:51.046Z,54.02
2023-05-23T11:50:50.970Z,54.22
2023-05-23T11:51:51.036Z,52.93
2023-05-23T11:52:51.055Z,53.42
2023-05-23T11:53:50.872Z,54.24
2023-05-23T11:54:52.924Z,53.65
2023-05-23T11:55:50.814Z,54.77
2023-05-23T11:56:50.137Z,55.16
2023-05-23T11:57:50.865Z,54.27
2023-05-23T11:58:51.963Z,54.57
2023-05-23T11:59:51.810Z,54.60
2023-05-23T12:00:52.284Z,55.68
2023-05-23T12:01:50.953Z,55.98
2023-05-23T12:02:50.319Z,56.87
2023-05-23T12:03:50.944Z,56.08
2023-05-23T12:04:50.999Z,55.58
2023-05-23T12:05:50.099Z,55.98
2023-05-23T12:06:50.875Z,56.57
2023-05-23T12:07:50.989Z,57.50
2023-05-23T12:08:50.014Z,57.20
2023-05-23T12:09:51.372Z,55.32
2023-05-23T12:10:50.931Z,55.88
2023-05-23T12:11:50.853Z,56.18
2023-05-23T12:12:50.913Z,56.48
2023-05-23T12:13:52.673Z,56.97
2023-05-23T12:14:49.972Z,55.96
2023-05-23T12:15:52.968Z,56.87
2023-05-23T12:16:50.593Z,56.68
2023-05-23T12:17:50.828Z,56.38
2023-05-23T12:18:50.732Z,56.35
2023-05-23T12:19:51.461Z,54.84
2023-05-23T12:20:51.422Z,54.32
2023-05-23T12:21:49.921Z,53.97
2023-05-23T12:22:50.989Z,53.18
2023-05-23T12:23:49.858Z,52.66
2023-05-23T12:24:50.693Z,53.55
2023-05-23T12:25:49.895Z,53.22
2023-05-23T12:26:50.752Z,51.45
2023-05-23T12:27:50.592Z,51.94
2023-05-23T12:28:50.656Z,51.35
2023-05-23T12:29:50.463Z,51.75
2023-05-23T12:30:50.644Z,53.03
2023-05-23T12:31:50.643Z,53.81
2023-05-23T12:32:51.787Z,53.33
2023-05-23T12:33:50.521Z,52.83
2023-05-23T12:34:50.594Z,53.35
2023-05-23T12:35:49.773Z,54.71
2023-05-23T12:36:57.169Z,54.31
2023-05-23T12:37:50.697Z,54.38
2023-05-23T12:38:50.551Z,54.21
2023-05-23T12:39:49.740Z,54.14
2023-05-23T12:40:50.334Z,54.86
2023-05-23T12:41:50.476Z,55.45
2023-05-23T12:42:50.394Z,55.87
2023-05-23T12:43:50.508Z,54.29
2023-05-23T12:44:50.300Z,53.99
2023-05-23T12:45:50.662Z,54.39
2023-05-23T12:46:50.331Z,55.01
2023-05-23T12:47:52.164Z,55.73
2023-05-23T12:48:51.388Z,55.83
2023-05-23T12:49:50.686Z,56.52
2023-05-23T12:50:50.295Z,56.77
2023-05-23T12:51:50.466Z,56.87
2023-05-23T12:52:50.501Z,57.17
2023-05-23T12:53:50.475Z,57.46